createdAt,value
2023-06-26T00:02:06.254Z,32.66
2023-06-26T00:04:36.313Z,32.60
2023-06-26T00:07:06.850Z,32.64
2023-06-26T00:09:37.940Z,32.62
2023-06-26T00:12:09.591Z,32.67
2023-06-26T00:14:39.662Z,32.65
2023-06-26T00:17:09.724Z,32.63
2023-06-26T00:19:39.775Z,32.65
2023-06-26T00:22:09.841Z,32.65
2023-06-26T00:24:39.934Z,32.67
2023-06-26T00:27:10.127Z,32.71
2023-06-26T00:29:41.973Z,32.71
2023-06-26T00:32:12.097Z,32.67
2023-06-26T00:34:42.239Z,32.67
2023-06-26T00:37:12.445Z,32.64
2023-06-26T00:39:43.336Z,32.63
2023-06-26T00:42:13.606Z,32.64
2023-06-26T00:44:43.706Z,32.69
2023-06-26T00:47:18.805Z,32.68
2023-06-26T00:49:49.254Z,32.66
2023-06-26T00:52:20.259Z,32.68
2023-06-26T00:54:50.959Z,32.66
2023-06-26T00:57:21.951Z,32.65
2023-06-26T00:59:52.995Z,32.65
2023-06-26T01:02:25.437Z,32.68
2023-06-26T01:04:56.623Z,32.70
2023-06-26T01:07:27.858Z,32.68
2023-06-26T01:09:57.591Z,32.72
2023-06-26T01:12:28.649Z,32.67
2023-06-26T01:14:58.757Z,32.70
2023-06-26T01:17:30.654Z,32.75
2023-06-26T01:20:10.268Z,32.72
2023-06-26T01:22:49.380Z,32.70
2023-06-26T01:25:33.824Z,32.73
2023-06-26T01:28:04.805Z,32.73
2023-06-26T01:30:36.668Z,32.73
2023-06-26T01:33:08.705Z,32.74
2023-06-26T01:35:39.096Z,32.75
2023-06-26T01:38:23.280Z,32.75
2023-06-26T01:40:54.313Z,32.73
2023-06-26T01:43:58.056Z,32.75
2023-06-26T01:46:55.583Z,32.78
2023-06-26T01:50:02.862Z,32.78
2023-06-26T01:53:05.498Z,32.76
2023-06-26T01:55:59.303Z,32.76
2023-06-26T01:58:32.936Z,32.82
2023-06-26T02:01:03.725Z,32.79
2023-06-26T02:03:36.133Z,32.79
2023-06-26T02:06:06.696Z,32.80
2023-06-26T02:08:36.838Z,32.77
2023-06-26T02:11:06.994Z,32.82
2023-06-26T02:13:37.016Z,32.80
2023-06-26T02:16:07.374Z,32.84
2023-06-26T02:18:37.688Z,32.79
2023-06-26T02:21:09.189Z,32.84
2023-06-26T02:23:39.359Z,32.85
2023-06-26T02:26:09.593Z,32.86
2023-06-26T02:28:39.759Z,32.85
2023-06-26T02:31:09.981Z,32.88
2023-06-26T02:33:40.089Z,32.87
2023-06-26T02:36:10.219Z,32.88
2023-06-26T02:38:40.417Z,32.86
2023-06-26T02:41:10.521Z,32.83
2023-06-26T02:43:40.632Z,32.86
2023-06-26T02:46:10.788Z,32.86
2023-06-26T02:48:40.804Z,32.88
2023-06-26T02:51:11.913Z,32.85
2023-06-26T02:53:41.954Z,32.88
2023-06-26T02:56:12.590Z,32.89
2023-06-26T02:58:42.868Z,32.92
2023-06-26T03:01:13.782Z,32.92
2023-06-26T03:03:45.511Z,32.92
2023-06-26T03:06:19.749Z,32.89
2023-06-26T03:08:49.889Z,32.83
2023-06-26T03:11:19.944Z,32.92
2023-06-26T03:13:50.610Z,32.91
2023-06-26T03:16:22.492Z,32.94
2023-06-26T03:18:52.655Z,32.95
2023-06-26T03:21:22.823Z,32.97
2023-06-26T03:23:53.154Z,33.00
2023-06-26T03:26:23.329Z,32.99
2023-06-26T03:28:53.451Z,32.98
2023-06-26T03:31:24.166Z,33.00
2023-06-26T03:33:54.360Z,33.03
2023-06-26T03:36:24.656Z,33.01
2023-06-26T03:39:00.167Z,32.98
2023-06-26T03:41:30.708Z,33.05
2023-06-26T03:44:01.236Z,33.05
2023-06-26T03:46:37.428Z,33.02
2023-06-26T03:49:09.930Z,33.10
2023-06-26T03:51:41.774Z,33.06
2023-06-26T03:54:11.845Z,33.08
2023-06-26T03:56:41.996Z,33.02
2023-06-26T03:59:12.203Z,33.04
2023-06-26T04:01:42.384Z,32.99
2023-06-26T04:04:12.789Z,33.08
2023-06-26T04:06:43.083Z,33.07
2023-06-26T04:09:13.309Z,33.09
2023-06-26T04:11:43.528Z,33.12
2023-06-26T04:14:13.651Z,33.06
2023-06-26T04:16:43.741Z,33.13
2023-06-26T04:19:14.885Z,33.14
2023-06-26T04:21:44.983Z,33.13
2023-06-26T04:24:15.922Z,33.13
2023-06-26T04:26:46.155Z,33.12
2023-06-26T04:29:16.260Z,33.08
2023-06-26T04:31:50.355Z,33.12
2023-06-26T04:34:20.440Z,33.14
2023-06-26T04:36:51.433Z,33.17
2023-06-26T04:39:21.648Z,33.14
2023-06-26T04:41:52.678Z,33.19
2023-06-26T04:44:23.653Z,33.11
2023-06-26T04:46:55.343Z,33.18
2023-06-26T04:49:25.398Z,33.14
2023-06-26T04:51:56.593Z,33.10
2023-06-26T04:54:26.776Z,33.16
2023-06-26T04:56:56.917Z,33.15
2023-06-26T04:59:27.379Z,33.15
2023-06-26T05:01:57.509Z,33.17
2023-06-26T05:04:28.139Z,33.12
2023-06-26T05:06:58.302Z,33.14
2023-06-26T05:09:28.571Z,33.19
2023-06-26T05:11:58.880Z,33.14
2023-06-26T05:14:28.952Z,33.14
2023-06-26T05:16:59.136Z,33.15
2023-06-26T05:19:30.642Z,33.17
2023-06-26T05:22:01.467Z,33.19
2023-06-26T05:24:32.749Z,33.16
2023-06-26T05:27:02.645Z,33.16
2023-06-26T05:29:38.019Z,33.20
2023-06-26T05:32:09.610Z,33.17
2023-06-26T05:34:40.365Z,33.15
2023-06-26T05:37:11.607Z,33.16
2023-06-26T05:39:41.501Z,33.19
2023-06-26T05:42:12.229Z,33.20
2023-06-26T05:44:42.359Z,33.19
2023-06-26T05:47:12.669Z,33.27
2023-06-26T05:49:42.998Z,33.26
2023-06-26T05:52:13.982Z,33.23
2023-06-26T05:54:44.390Z,33.23
2023-06-26T05:57:17.999Z,33.30
2023-06-26T05:59:48.592Z,33.25
2023-06-26T06:02:18.665Z,33.25
2023-06-26T06:04:48.829Z,33.25
2023-06-26T06:07:19.256Z,33.29
2023-06-26T06:09:49.456Z,33.27
2023-06-26T06:12:19.654Z,33.23
2023-06-26T06:14:49.851Z,33.27
2023-06-26T06:17:20.053Z,33.24
2023-06-26T06:19:50.196Z,33.29
2023-06-26T06:22:21.054Z,33.27
2023-06-26T06:24:53.075Z,33.30
2023-06-26T06:27:23.182Z,33.29
2023-06-26T06:29:53.252Z,33.31
2023-06-26T06:32:23.478Z,33.34
2023-06-26T06:34:53.622Z,33.29
2023-06-26T06:37:23.692Z,33.39
2023-06-26T06:39:53.800Z,33.36
2023-06-26T06:42:23.846Z,33.32
2023-06-26T06:44:53.974Z,33.27
2023-06-26T06:47:24.069Z,33.28
2023-06-26T06:49:54.412Z,33.30
2023-06-26T06:52:24.547Z,33.38
2023-06-26T06:54:59.476Z,33.31
2023-06-26T06:57:29.678Z,33.33
2023-06-26T06:59:59.828Z,33.40
2023-06-26T07:02:29.909Z,33.42
2023-06-26T07:04:59.974Z,33.40
2023-06-26T07:07:34.650Z,33.37
2023-06-26T07:10:11.280Z,33.36
2023-06-26T07:12:41.502Z,33.33
2023-06-26T07:15:12.113Z,33.33
2023-06-26T07:17:43.120Z,33.39
2023-06-26T07:20:18.563Z,33.31
2023-06-26T07:22:49.288Z,33.36
2023-06-26T07:25:19.432Z,33.34
2023-06-26T07:27:49.467Z,33.37
2023-06-26T07:30:19.588Z,33.39
2023-06-26T07:32:49.896Z,33.46
2023-06-26T07:35:20.548Z,33.46
2023-06-26T07:37:50.743Z,33.44
2023-06-26T07:40:21.169Z,33.47
2023-06-26T07:42:51.454Z,33.44
2023-06-26T07:45:21.670Z,33.46
2023-06-26T07:47:51.860Z,33.43
2023-06-26T07:50:25.816Z,33.41
2023-06-26T07:52:56.663Z,33.39
2023-06-26T07:55:26.749Z,33.45
2023-06-26T07:57:58.640Z,33.37
2023-06-26T08:00:29.718Z,33.37
2023-06-26T08:02:59.975Z,33.39
2023-06-26T08:05:30.525Z,33.39
2023-06-26T08:08:00.673Z,33.39
2023-06-26T08:10:30.908Z,33.44
2023-06-26T08:13:01.887Z,33.43
2023-06-26T08:15:32.237Z,33.40
2023-06-26T08:18:02.407Z,33.41
2023-06-26T08:20:33.253Z,33.44
2023-06-26T08:23:03.349Z,33.44
2023-06-26T08:25:33.438Z,33.45
2023-06-26T08:28:03.499Z,33.51
2023-06-26T08:30:33.689Z,33.52
2023-06-26T08:33:03.882Z,33.48
2023-06-26T08:35:34.038Z,33.50
2023-06-26T08:38:04.140Z,33.50
2023-06-26T08:40:35.748Z,33.49
2023-06-26T08:43:07.704Z,33.47
2023-06-26T08:45:38.828Z,33.47
2023-06-26T08:48:11.061Z,33.49
2023-06-26T08:50:42.798Z,33.40
2023-06-26T08:53:43.686Z,33.45
2023-06-26T08:56:17.575Z,33.49
2023-06-26T08:58:49.274Z,33.45
2023-06-26T09:01:21.024Z,33.49
2023-06-26T09:03:51.457Z,33.50
2023-06-26T09:06:21.979Z,33.50
2023-06-26T09:08:52.152Z,33.46
2023-06-26T09:11:22.374Z,33.52
2023-06-26T09:13:52.878Z,33.50
2023-06-26T09:16:30.267Z,33.53
2023-06-26T09:19:00.591Z,33.52
2023-06-26T09:21:30.837Z,33.50
2023-06-26T09:24:02.131Z,33.50
2023-06-26T09:26:32.799Z,33.51
2023-06-26T09:29:03.040Z,33.53
2023-06-26T09:31:41.470Z,33.52
2023-06-26T09:34:13.746Z,33.52
2023-06-26T09:36:45.895Z,33.49
2023-06-26T09:39:17.862Z,33.52
2023-06-26T09:41:48.556Z,33.45
2023-06-26T09:44:18.818Z,33.49
2023-06-26T09:46:50.267Z,33.49
2023-06-26T09:49:20.534Z,33.50
2023-06-26T09:51:52.683Z,33.45
2023-06-26T09:54:25.919Z,33.44
2023-06-26T09:56:56.099Z,33.43
2023-06-26T09:59:27.525Z,33.44
2023-06-26T10:02:03.790Z,33.42
2023-06-26T10:04:34.435Z,33.44
2023-06-26T10:07:10.276Z,33.48
2023-06-26T10:09:46.377Z,33.51
2023-06-26T10:12:28.036Z,33.51
2023-06-26T10:15:01.221Z,33.45
2023-06-26T10:17:39.130Z,33.52
2023-06-26T10:20:13.805Z,33.48
2023-06-26T10:22:49.629Z,33.50
2023-06-26T10:25:25.179Z,33.50
2023-06-26T10:27:59.782Z,33.46
2023-06-26T10:30:34.916Z,33.45
2023-06-26T10:33:06.918Z,33.45
2023-06-26T10:35:37.433Z,33.50
2023-06-26T10:38:07.929Z,33.51
2023-06-26T10:40:54.921Z,33.49
2023-06-26T10:43:33.570Z,33.44
2023-06-26T10:46:03.950Z,33.52
2023-06-26T10:48:34.119Z,33.50
2023-06-26T10:51:18.713Z,33.52
2023-06-26T10:53:57.638Z,33.49
2023-06-26T10:56:47.127Z,33.50
2023-06-26T10:59:31.923Z,33.51
2023-06-26T11:02:10.853Z,33.50
2023-06-26T11:04:49.497Z,33.49
2023-06-26T11:07:25.826Z,33.48
2023-06-26T11:10:14.379Z,33.52
2023-06-26T11:12:51.607Z,33.47
2023-06-26T11:15:23.731Z,33.51
2023-06-26T11:17:54.493Z,33.50
2023-06-26T11:20:24.856Z,33.45
2023-06-26T11:22:58.151Z,33.49
2023-06-26T11:25:28.563Z,33.50
2023-06-26T11:27:59.076Z,33.50
2023-06-26T11:30:30.924Z,33.53
2023-06-26T11:33:14.226Z,33.54
2023-06-26T11:35:44.583Z,33.49
2023-06-26T11:38:14.906Z,33.52
2023-06-26T11:40:45.151Z,33.51
2023-06-26T11:43:15.571Z,33.54
2023-06-26T11:45:45.771Z,33.57
2023-06-26T11:48:16.472Z,33.54
2023-06-26T11:50:47.732Z,33.53
2023-06-26T11:53:22.230Z,33.51
2023-06-26T11:55:52.397Z,33.51
2023-06-26T11:58:22.673Z,33.50
2023-06-26T12:00:56.488Z,33.49
2023-06-26T12:03:28.297Z,33.52
2023-06-26T12:05:59.597Z,33.52
2023-06-26T12:08:30.556Z,33.47
2023-06-26T12:11:01.022Z,33.53
2023-06-26T12:13:32.720Z,33.50
2023-06-26T12:16:03.067Z,33.53
2023-06-26T12:18:39.790Z,33.51
2023-06-26T12:21:10.328Z,33.53
2023-06-26T12:23:44.026Z,33.52
2023-06-26T12:26:24.583Z,33.48
2023-06-26T12:28:54.736Z,33.55
2023-06-26T12:31:25.774Z,33.51
2023-06-26T12:33:56.432Z,33.48
2023-06-26T12:36:26.921Z,33.51
2023-06-26T12:38:58.327Z,33.49
2023-06-26T12:41:28.951Z,33.48
2023-06-26T12:44:01.916Z,33.45
2023-06-26T12:46:41.855Z,33.50
2023-06-26T12:50:20.858Z,33.45
2023-06-26T12:52:51.282Z,33.49
2023-06-26T12:55:21.692Z,33.44
2023-06-26T12:57:52.159Z,33.44
2023-06-26T13:00:22.646Z,33.43
2023-06-26T13:02:52.889Z,33.43
2023-06-26T13:05:23.331Z,33.46
2023-06-26T13:07:53.744Z,33.46
2023-06-26T13:10:25.096Z,33.48
2023-06-26T13:12:55.245Z,33.43
2023-06-26T13:15:25.580Z,33.40
2023-06-26T13:17:55.890Z,33.44
2023-06-26T13:20:26.439Z,33.50
2023-06-26T13:22:57.830Z,33.55
2023-06-26T13:25:28.262Z,33.49
2023-06-26T13:27:58.688Z,33.47
2023-06-26T13:30:29.574Z,33.38
2023-06-26T13:32:59.753Z,33.38
2023-06-26T13:35:30.005Z,33.38
2023-06-26T13:38:00.367Z,33.39
2023-06-26T13:40:30.558Z,33.42
2023-06-26T13:43:00.713Z,33.40
2023-06-26T13:45:32.093Z,33.34
2023-06-26T13:48:02.478Z,33.35
2023-06-26T13:50:52.329Z,33.36
2023-06-26T13:53:23.766Z,33.27
2023-06-26T13:55:54.064Z,33.29
2023-06-26T13:58:27.982Z,33.28
2023-06-26T14:00:58.329Z,33.29
2023-06-26T14:03:29.769Z,33.32
2023-06-26T14:06:00.201Z,33.22
2023-06-26T14:08:30.446Z,33.28
2023-06-26T14:11:00.836Z,33.27
2023-06-26T14:13:31.278Z,33.28
2023-06-26T14:16:01.942Z,33.19
2023-06-26T14:18:32.323Z,33.15
2023-06-26T14:21:02.483Z,33.23
2023-06-26T14:23:32.778Z,33.21
2023-06-26T14:26:03.027Z,33.16
2023-06-26T14:28:33.302Z,33.14
2023-06-26T14:31:03.482Z,33.15
2023-06-26T14:33:33.704Z,33.08
2023-06-26T14:36:04.047Z,33.08
2023-06-26T14:38:34.377Z,33.15
2023-06-26T14:41:04.628Z,33.09
2023-06-26T14:43:35.503Z,33.12
2023-06-26T14:46:06.189Z,33.14
2023-06-26T14:48:36.815Z,33.05
2023-06-26T14:51:07.390Z,33.07
2023-06-26T14:53:37.682Z,33.05
2023-06-26T14:56:09.462Z,33.01
2023-06-26T14:58:39.768Z,33.11
2023-06-26T15:01:10.804Z,33.05
2023-06-26T15:03:41.420Z,33.08
2023-06-26T15:06:12.110Z,33.15
2023-06-26T15:08:42.537Z,33.20
2023-06-26T15:11:12.969Z,33.17
2023-06-26T15:13:43.312Z,33.19
2023-06-26T15:16:13.763Z,33.25
2023-06-26T15:18:45.483Z,33.19
2023-06-26T15:21:15.665Z,33.22
2023-06-26T15:23:46.591Z,33.13
2023-06-26T15:26:17.409Z,33.16
2023-06-26T15:28:47.798Z,33.09
2023-06-26T15:31:18.304Z,33.06
2023-06-26T15:33:49.124Z,33.03
2023-06-26T15:36:19.466Z,33.08
2023-06-26T15:38:50.346Z,33.05
2023-06-26T15:41:20.629Z,33.16
2023-06-26T15:43:50.977Z,33.18
2023-06-26T15:46:21.546Z,33.16
2023-06-26T15:48:51.902Z,33.19
2023-06-26T15:51:22.307Z,33.12
2023-06-26T15:53:52.665Z,33.13
2023-06-26T15:56:23.436Z,33.13
2023-06-26T15:58:53.787Z,33.14
2023-06-26T16:01:24.422Z,33.16
2023-06-26T16:03:54.601Z,33.13
2023-06-26T16:06:24.991Z,33.08
2023-06-26T16:08:56.432Z,33.13
2023-06-26T16:11:26.761Z,33.15
2023-06-26T16:13:58.661Z,33.15
2023-06-26T16:16:29.027Z,33.11
2023-06-26T16:18:59.430Z,33.16
2023-06-26T16:21:30.428Z,33.04
2023-06-26T16:24:00.755Z,33.04
2023-06-26T16:26:31.102Z,33.04
2023-06-26T16:29:01.408Z,33.06
2023-06-26T16:31:31.841Z,33.08
2023-06-26T16:34:02.226Z,33.07
2023-06-26T16:36:32.597Z,33.02
2023-06-26T16:39:04.731Z,33.03
2023-06-26T16:41:35.205Z,32.99
2023-06-26T16:44:05.369Z,33.01
2023-06-26T16:46:35.782Z,32.97
2023-06-26T16:49:06.182Z,32.92
2023-06-26T16:51:36.505Z,32.96
2023-06-26T16:54:06.949Z,32.87
2023-06-26T16:56:37.321Z,32.91
2023-06-26T16:59:07.681Z,32.91
2023-06-26T17:01:38.142Z,32.89
2023-06-26T17:04:09.297Z,32.89
2023-06-26T17:06:39.476Z,32.85
2023-06-26T17:09:09.797Z,32.85
2023-06-26T17:11:40.014Z,32.87
2023-06-26T17:14:10.337Z,32.88
2023-06-26T17:16:40.650Z,32.84
2023-06-26T17:19:11.054Z,32.84
2023-06-26T17:21:41.334Z,32.88
2023-06-26T17:24:12.821Z,32.85
2023-06-26T17:26:46.829Z,32.85
2023-06-26T17:29:17.126Z,32.86
2023-06-26T17:31:47.869Z,32.87
2023-06-26T17:34:18.360Z,32.85
2023-06-26T17:36:48.679Z,32.83
2023-06-26T17:39:19.009Z,32.79
2023-06-26T17:41:49.310Z,32.79
2023-06-26T17:44:19.665Z,32.75
2023-06-26T17:46:50.893Z,32.78
2023-06-26T17:49:20.829Z,32.77
2023-06-26T17:51:51.716Z,32.73
2023-06-26T17:54:23.425Z,32.76
2023-06-26T17:56:53.749Z,32.78
2023-06-26T17:59:24.086Z,32.80
2023-06-26T18:01:54.668Z,32.77
2023-06-26T18:04:25.238Z,32.77
2023-06-26T18:06:55.697Z,32.80
2023-06-26T18:09:26.014Z,32.79
2023-06-26T18:11:56.416Z,32.71
2023-06-26T18:14:26.655Z,32.71
2023-06-26T18:16:57.057Z,32.68
2023-06-26T18:19:27.478Z,32.63
2023-06-26T18:21:57.809Z,32.67
2023-06-26T18:24:28.168Z,32.62
2023-06-26T18:26:58.476Z,32.65
2023-06-26T18:29:28.821Z,32.61
2023-06-26T18:31:59.050Z,32.66
2023-06-26T18:34:29.299Z,32.65
2023-06-26T18:37:02.596Z,32.61
2023-06-26T18:39:33.190Z,32.65
2023-06-26T18:42:03.949Z,32.70
2023-06-26T18:44:34.160Z,32.71
2023-06-26T18:47:04.899Z,32.71
2023-06-26T18:49:35.240Z,32.67
2023-06-26T18:52:05.673Z,32.67
2023-06-26T18:54:36.028Z,32.65
2023-06-26T18:57:06.497Z,32.64
2023-06-26T18:59:36.832Z,32.65
2023-06-26T19:02:07.358Z,32.65
2023-06-26T19:04:37.812Z,32.69
2023-06-26T19:07:08.529Z,32.68
2023-06-26T19:09:38.830Z,32.71
2023-06-26T19:12:09.685Z,32.69
2023-06-26T19:14:40.081Z,32.71
2023-06-26T19:17:13.536Z,32.67
2023-06-26T19:19:43.845Z,32.67
2023-06-26T19:22:14.277Z,32.64
2023-06-26T19:24:44.579Z,32.62
2023-06-26T19:27:14.741Z,32.60
2023-06-26T19:29:44.849Z,32.61
2023-06-26T19:32:15.140Z,32.62
2023-06-26T19:34:45.329Z,32.68
2023-06-26T19:37:15.793Z,32.65
2023-06-26T19:39:46.059Z,32.68
2023-06-26T19:42:16.466Z,32.69
2023-06-26T19:44:47.431Z,32.68
2023-06-26T19:47:17.797Z,32.71
2023-06-26T19:49:48.099Z,32.72
2023-06-26T19:52:20.289Z,32.76
2023-06-26T19:54:50.607Z,32.75
2023-06-26T19:57:20.907Z,32.72
2023-06-26T19:59:51.278Z,32.74
2023-06-26T20:02:21.629Z,32.75
2023-06-26T20:04:51.907Z,32.76
2023-06-26T20:07:22.362Z,32.76
2023-06-26T20:09:52.687Z,32.77
2023-06-26T20:12:22.889Z,32.77
2023-06-26T20:14:53.153Z,32.75
2023-06-26T20:17:23.441Z,32.77
2023-06-26T20:19:53.847Z,32.79
2023-06-26T20:22:24.083Z,32.77
2023-06-26T20:24:54.328Z,32.74
2023-06-26T20:27:24.582Z,32.75
2023-06-26T20:29:54.811Z,32.75
2023-06-26T20:32:26.799Z,32.73
2023-06-26T20:34:58.563Z,32.72
2023-06-26T20:37:28.789Z,32.73
2023-06-26T20:39:59.293Z,32.70
2023-06-26T20:42:30.063Z,32.71
2023-06-26T20:45:01.104Z,32.66
2023-06-26T20:47:36.680Z,32.69
2023-06-26T20:50:07.423Z,32.67
2023-06-26T20:52:47.367Z,32.68
2023-06-26T20:55:17.950Z,32.72
2023-06-26T20:57:48.152Z,32.63
2023-06-26T21:00:18.912Z,32.61
2023-06-26T21:02:49.237Z,32.62
2023-06-26T21:05:19.408Z,32.63
2023-06-26T21:07:49.678Z,32.58
2023-06-26T21:10:22.261Z,32.58
2023-06-26T21:12:52.397Z,32.59
2023-06-26T21:15:22.697Z,32.58
2023-06-26T21:17:52.860Z,32.61
2023-06-26T21:20:23.689Z,32.59
2023-06-26T21:22:54.368Z,32.59
2023-06-26T21:25:25.027Z,32.56
2023-06-26T21:27:55.734Z,32.59
2023-06-26T21:30:26.012Z,32.55
2023-06-26T21:32:56.251Z,32.59
2023-06-26T21:35:41.476Z,32.53
2023-06-26T21:38:13.110Z,32.50
2023-06-26T21:40:43.306Z,32.54
2023-06-26T21:43:15.157Z,32.51
2023-06-26T21:45:47.304Z,32.50
2023-06-26T21:48:17.490Z,32.55
2023-06-26T21:50:48.361Z,32.53
2023-06-26T21:53:18.728Z,32.53
2023-06-26T21:55:48.899Z,32.54
2023-06-26T21:58:19.301Z,32.56
2023-06-26T22:00:49.707Z,32.54
2023-06-26T22:03:19.957Z,32.54
2023-06-26T22:05:50.219Z,32.52
2023-06-26T22:08:20.477Z,32.52
2023-06-26T22:10:50.636Z,32.50
2023-06-26T22:13:21.176Z,32.50
2023-06-26T22:15:51.470Z,32.52
2023-06-26T22:18:22.239Z,32.50
2023-06-26T22:20:53.095Z,32.56
2023-06-26T22:23:23.330Z,32.49
2023-06-26T22:25:53.434Z,32.53
2023-06-26T22:28:23.708Z,32.55
2023-06-26T22:30:53.883Z,32.56
2023-06-26T22:33:24.111Z,32.56
2023-06-26T22:35:55.581Z,32.53
2023-06-26T22:38:25.825Z,32.54
2023-06-26T22:40:56.047Z,32.50
2023-06-26T22:43:27.328Z,32.56
2023-06-26T22:45:57.141Z,32.54
2023-06-26T22:48:27.548Z,32.47
2023-06-26T22:50:58.674Z,32.47
2023-06-26T22:55:25.501Z,32.53
2023-06-26T22:57:56.222Z,32.44
2023-06-26T23:00:26.461Z,32.44
2023-06-26T23:03:02.309Z,32.46
2023-06-26T23:05:33.958Z,32.38
2023-06-26T23:08:06.036Z,32.44
2023-06-26T23:10:37.437Z,32.34
2023-06-26T23:13:07.715Z,32.37
2023-06-26T23:15:42.608Z,32.41
2023-06-26T23:18:12.941Z,32.43
2023-06-26T23:20:45.801Z,32.39
2023-06-26T23:23:16.794Z,32.42
2023-06-26T23:25:47.068Z,32.40
2023-06-26T23:28:17.350Z,32.40
2023-06-26T23:30:47.673Z,32.42
2023-06-26T23:33:22.241Z,32.40
2023-06-26T23:35:53.080Z,32.42
2023-06-26T23:38:23.262Z,32.42
2023-06-26T23:40:53.503Z,32.40
2023-06-26T23:43:27.468Z,32.39
2023-06-26T23:45:57.678Z,32.44
2023-06-26T23:48:28.197Z,32.40
2023-06-26T23:50:58.545Z,32.42
2023-06-26T23:53:28.775Z,32.38
2023-06-26T23:55:59.032Z,32.42
2023-06-26T23:58:31.091Z,32.42
